sensor_id;sensor_type;location;lat;lon;timestamp;pressure;altitude;pressure_sealevel;temperature;humidity
8637;BME280;4356;49.068;8.658;2024-01-07T00:01:20;99384.88;;;14.64;46.18
8637;BME280;4356;49.068;8.658;2024-01-07T00:03:46;99384.66;;;14.66;46.46
8637;BME280;4356;49.068;8.658;2024-01-07T00:06:11;99386.78;;;14.64;46.24
8637;BME280;4356;49.068;8.658;2024-01-07T00:08:37;99376.78;;;14.58;46.11
8637;BME280;4356;49.068;8.658;2024-01-07T00:11:02;99387.38;;;14.66;46.07
8637;BME280;4356;49.068;8.658;2024-01-07T00:13:28;99384.06;;;14.64;45.92
8637;BME280;4356;49.068;8.658;2024-01-07T00:15:53;99388.44;;;14.65;46.11
8637;BME280;4356;49.068;8.658;2024-01-07T00:18:21;99389.25;;;14.65;45.90
8637;BME280;4356;49.068;8.658;2024-01-07T00:20:47;99395.47;;;14.66;46.24
8637;BME280;4356;49.068;8.658;2024-01-07T00:23:13;99389.25;;;14.65;46.41
8637;BME280;4356;49.068;8.658;2024-01-07T00:25:38;99399.25;;;14.65;46.38
8637;BME280;4356;49.068;8.658;2024-01-07T00:28:04;99381.78;;;14.61;46.25
8637;BME280;4356;49.068;8.658;2024-01-07T00:30:29;99389.66;;;14.62;46.09
8637;BME280;4356;49.068;8.658;2024-01-07T00:32:55;99394.47;;;14.60;45.93
8637;BME280;4356;49.068;8.658;2024-01-07T00:35:20;99389.25;;;14.59;46.40
8637;BME280;4356;49.068;8.658;2024-01-07T00:37:45;99400.31;;;14.64;45.95
8637;BME280;4356;49.068;8.658;2024-01-07T00:40:11;99394.88;;;14.64;46.34
8637;BME280;4356;49.068;8.658;2024-01-07T00:42:37;99395.69;;;14.64;46.00
8637;BME280;4356;49.068;8.658;2024-01-07T00:45:02;99397.38;;;14.65;46.09
8637;BME280;4356;49.068;8.658;2024-01-07T00:47:28;99395.06;;;14.62;45.98
8637;BME280;4356;49.068;8.658;2024-01-07T00:49:53;99416.31;;;14.65;46.10
8637;BME280;4356;49.068;8.658;2024-01-07T00:52:18;99401.31;;;14.63;46.26
8637;BME280;4356;49.068;8.658;2024-01-07T00:54:44;99399.66;;;14.62;46.42
8637;BME280;4356;49.068;8.658;2024-01-07T00:57:12;99398.00;;;14.61;46.57
8637;BME280;4356;49.068;8.658;2024-01-07T00:59:38;99401.97;;;14.58;46.11
8637;BME280;4356;49.068;8.658;2024-01-07T01:02:03;99412.97;;;14.63;46.18
8637;BME280;4356;49.068;8.658;2024-01-07T01:04:29;99397.16;;;14.54;46.08
8637;BME280;4356;49.068;8.658;2024-01-07T01:06:54;99413.81;;;14.64;46.10
8637;BME280;4356;49.068;8.658;2024-01-07T01:09:19;99406.72;;;14.63;46.20
8637;BME280;4356;49.068;8.658;2024-01-07T01:11:45;99414.00;;;14.62;46.04
8637;BME280;4356;49.068;8.658;2024-01-07T01:14:10;99418.38;;;14.63;46.32
8637;BME280;4356;49.068;8.658;2024-01-07T01:16:36;99414.00;;;14.62;45.76
8637;BME280;4356;49.068;8.658;2024-01-07T01:19:01;99416.72;;;14.62;46.04
8637;BME280;4356;49.068;8.658;2024-01-07T01:21:26;99418.59;;;14.62;46.39
8637;BME280;4356;49.068;8.658;2024-01-07T01:23:52;99419.63;;;14.61;46.13
8637;BME280;4356;49.068;8.658;2024-01-07T01:26:17;99416.91;;;14.61;46.05
8637;BME280;4356;49.068;8.658;2024-01-07T01:28:42;99428.56;;;14.61;46.10
8637;BME280;4356;49.068;8.658;2024-01-07T01:31:08;99419.63;;;14.61;46.48
8637;BME280;4356;49.068;8.658;2024-01-07T01:33:33;99421.53;;;14.60;46.09
8637;BME280;4356;49.068;8.658;2024-01-07T01:35:59;99424.41;;;14.59;46.21
8637;BME280;4356;49.068;8.658;2024-01-07T01:38:24;99425.03;;;14.61;46.25
8637;BME280;4356;49.068;8.658;2024-01-07T01:40:53;99424.00;;;14.62;46.12
8637;BME280;4356;49.068;8.658;2024-01-07T01:43:26;99427.94;;;14.59;45.84
8637;BME280;4356;49.068;8.658;2024-01-07T01:45:53;99424.41;;;14.59;46.31
8637;BME280;4356;49.068;8.658;2024-01-07T01:48:18;99412.38;;;14.55;45.94
8637;BME280;4356;49.068;8.658;2024-01-07T01:50:44;99428.78;;;14.60;45.92
8637;BME280;4356;49.068;8.658;2024-01-07T01:53:10;99427.09;;;14.59;46.35
8637;BME280;4356;49.068;8.658;2024-01-07T01:55:36;99427.09;;;14.59;46.45
8637;BME280;4356;49.068;8.658;2024-01-07T01:58:02;99419.41;;;14.56;46.41
8637;BME280;4356;49.068;8.658;2024-01-07T02:00:29;99431.50;;;14.60;46.04
8637;BME280;4356;49.068;8.658;2024-01-07T02:02:55;99423.78;;;14.57;46.39
8637;BME280;4356;49.068;8.658;2024-01-07T02:05:21;99436.91;;;14.60;45.99
8637;BME280;4356;49.068;8.658;2024-01-07T02:07:47;99420.66;;;14.53;46.40
8637;BME280;4356;49.068;8.658;2024-01-07T02:10:13;99432.09;;;14.55;46.16
8637;BME280;4356;49.068;8.658;2024-01-07T02:12:38;99415.88;;;14.49;46.16
8637;BME280;4356;49.068;8.658;2024-01-07T02:15:04;99432.72;;;14.57;46.02
8637;BME280;4356;49.068;8.658;2024-01-07T02:17:30;99424.41;;;14.52;45.97
8637;BME280;4356;49.068;8.658;2024-01-07T02:19:56;99434.00;;;14.55;45.95
8637;BME280;4356;49.068;8.658;2024-01-07T02:22:21;99425.22;;;14.46;46.17
8637;BME280;4356;49.068;8.658;2024-01-07T02:24:47;99441.91;;;14.56;46.14
8637;BME280;4356;49.068;8.658;2024-01-07T02:27:12;99437.50;;;14.55;46.07
8637;BME280;4356;49.068;8.658;2024-01-07T02:29:37;99447.09;;;14.58;46.20
8637;BME280;4356;49.068;8.658;2024-01-07T02:32:03;99443.75;;;14.56;46.29
8637;BME280;4356;49.068;8.658;2024-01-07T02:34:28;99447.09;;;14.58;46.03
8637;BME280;4356;49.068;8.658;2024-01-07T02:36:54;99441.69;;;14.58;46.13
8637;BME280;4356;49.068;8.658;2024-01-07T02:39:19;99444.59;;;14.56;46.25
8637;BME280;4356;49.068;8.658;2024-01-07T02:41:45;99438.78;;;14.53;45.93
8637;BME280;4356;49.068;8.658;2024-01-07T02:44:11;99425.88;;;14.48;46.01
8637;BME280;4356;49.068;8.658;2024-01-07T02:46:36;99445.63;;;14.55;45.75
8637;BME280;4356;49.068;8.658;2024-01-07T02:49:01;99448.09;;;14.57;46.23
8637;BME280;4356;49.068;8.658;2024-01-07T02:51:27;99439.16;;;14.50;46.30
8637;BME280;4356;49.068;8.658;2024-01-07T02:53:52;99422.75;;;14.44;45.87
8637;BME280;4356;49.068;8.658;2024-01-07T02:56:18;99440.63;;;14.52;46.45
8637;BME280;4356;49.068;8.658;2024-01-07T02:58:43;99443.75;;;14.56;46.21
8637;BME280;4356;49.068;8.658;2024-01-07T03:01:09;99445.84;;;14.54;46.32
8637;BME280;4356;49.068;8.658;2024-01-07T03:03:35;99452.72;;;14.56;46.12
8637;BME280;4356;49.068;8.658;2024-01-07T03:06:00;99450.00;;;14.56;45.99
8637;BME280;4356;49.068;8.658;2024-01-07T03:08:26;99445.84;;;14.54;46.18
8637;BME280;4356;49.068;8.658;2024-01-07T03:10:52;99433.78;;;14.43;45.81
8637;BME280;4356;49.068;8.658;2024-01-07T03:13:18;99448.31;;;14.55;46.25
8637;BME280;4356;49.068;8.658;2024-01-07T03:15:43;99447.91;;;14.52;46.12
8637;BME280;4356;49.068;8.658;2024-01-07T03:18:08;99429.19;;;14.43;46.04
8637;BME280;4356;49.068;8.658;2024-01-07T03:20:34;99455.63;;;14.55;46.10
8637;BME280;4356;49.068;8.658;2024-01-07T03:23:02;99441.88;;;14.50;46.19
8637;BME280;4356;49.068;8.658;2024-01-07T03:25:28;99449.81;;;14.51;45.59
8637;BME280;4356;49.068;8.658;2024-01-07T03:27:53;99429.59;;;14.40;45.89
8637;BME280;4356;49.068;8.658;2024-01-07T03:30:19;99452.09;;;14.54;46.39
8637;BME280;4356;49.068;8.658;2024-01-07T03:32:44;99438.97;;;14.44;46.21
8637;BME280;4356;49.068;8.658;2024-01-07T03:35:09;99452.28;;;14.53;46.13
8637;BME280;4356;49.068;8.658;2024-01-07T03:37:35;99436.69;;;14.41;46.10
8637;BME280;4356;49.068;8.658;2024-01-07T03:40:01;99447.28;;;14.50;46.11
8637;BME280;4356;49.068;8.658;2024-01-07T03:42:27;99447.28;;;14.50;45.73
8637;BME280;4356;49.068;8.658;2024-01-07T03:44:52;99427.09;;;14.39;46.31
8637;BME280;4356;49.068;8.658;2024-01-07T03:47:18;99453.94;;;14.54;46.11
8637;BME280;4356;49.068;8.658;2024-01-07T03:49:43;99459.78;;;14.51;45.99
8637;BME280;4356;49.068;8.658;2024-01-07T03:52:08;99456.44;;;14.49;45.79
8637;BME280;4356;49.068;8.658;2024-01-07T03:54:34;99458.72;;;14.52;46.28
8637;BME280;4356;49.068;8.658;2024-01-07T03:56:59;99458.09;;;14.50;46.14
8637;BME280;4356;49.068;8.658;2024-01-07T03:59:25;99466.19;;;14.50;45.80
8637;BME280;4356;49.068;8.658;2024-01-07T04:01:54;99462.06;;;14.47;46.33
8637;BME280;4356;49.068;8.658;2024-01-07T04:04:19;99463.72;;;14.48;46.10
8637;BME280;4356;49.068;8.658;2024-01-07T04:06:45;99471.81;;;14.48;46.32
8637;BME280;4356;49.068;8.658;2024-01-07T04:09:10;99470.97;;;14.48;46.46
8637;BME280;4356;49.068;8.658;2024-01-07T04:11:42;99475.38;;;14.49;45.93
8637;BME280;4356;49.068;8.658;2024-01-07T04:14:08;99471.81;;;14.48;46.13
8637;BME280;4356;49.068;8.658;2024-01-07T04:16:34;99475.59;;;14.47;46.35
8637;BME280;4356;49.068;8.658;2024-01-07T04:18:59;99485.13;;;14.50;45.96
8637;BME280;4356;49.068;8.658;2024-01-07T04:21:25;99482.44;;;14.50;45.79
8637;BME280;4356;49.068;8.658;2024-01-07T04:23:50;99480.78;;;14.49;45.76
8637;BME280;4356;49.068;8.658;2024-01-07T04:26:16;99482.00;;;14.46;45.87
8637;BME280;4356;49.068;8.658;2024-01-07T04:28:42;99483.69;;;14.47;46.14
8637;BME280;4356;49.068;8.658;2024-01-07T04:31:08;99491.81;;;14.47;45.81
8637;BME280;4356;49.068;8.658;2024-01-07T04:33:33;99497.00;;;14.49;46.01
8637;BME280;4356;49.068;8.658;2024-01-07T04:35:58;99488.88;;;14.42;45.97
8637;BME280;4356;49.068;8.658;2024-01-07T04:38:26;99498.84;;;14.48;46.37
8637;BME280;4356;49.068;8.658;2024-01-07T04:40:51;99499.91;;;14.47;46.27
8637;BME280;4356;49.068;8.658;2024-01-07T04:43:18;99494.28;;;14.42;46.38
8637;BME280;4356;49.068;8.658;2024-01-07T04:45:43;99504.47;;;14.47;46.17
8637;BME280;4356;49.068;8.658;2024-01-07T04:48:08;99494.91;;;14.44;46.08
8637;BME280;4356;49.068;8.658;2024-01-07T04:50:34;99499.28;;;14.45;45.94
8637;BME280;4356;49.068;8.658;2024-01-07T04:52:59;99493.88;;;14.45;45.60
8637;BME280;4356;49.068;8.658;2024-01-07T04:55:25;99503.44;;;14.48;46.08
8637;BME280;4356;49.068;8.658;2024-01-07T04:57:50;99509.88;;;14.47;46.20
8637;BME280;4356;49.068;8.658;2024-01-07T05:00:15;99511.53;;;14.48;46.01
8637;BME280;4356;49.068;8.658;2024-01-07T05:02:41;99509.88;;;14.47;46.15
8637;BME280;4356;49.068;8.658;2024-01-07T05:05:08;99513.44;;;14.47;46.28
8637;BME280;4356;49.068;8.658;2024-01-07T05:07:34;99511.31;;;14.42;46.32
8637;BME280;4356;49.068;8.658;2024-01-07T05:09:59;99504.28;;;14.41;45.99
8637;BME280;4356;49.068;8.658;2024-01-07T05:12:24;99517.38;;;14.44;46.07
8637;BME280;4356;49.068;8.658;2024-01-07T05:14:51;99525.25;;;14.46;46.02
8637;BME280;4356;49.068;8.658;2024-01-07T05:17:17;99510.69;;;14.40;45.92
8637;BME280;4356;49.068;8.658;2024-01-07T05:19:42;99509.47;;;14.36;45.97
8637;BME280;4356;49.068;8.658;2024-01-07T05:22:07;99527.75;;;14.48;46.02
8637;BME280;4356;49.068;8.658;2024-01-07T05:24:33;99519.44;;;14.42;45.77
8637;BME280;4356;49.068;8.658;2024-01-07T05:26:58;99526.53;;;14.43;46.15
8637;BME280;4356;49.068;8.658;2024-01-07T05:29:24;99529.66;;;14.47;46.08
8637;BME280;4356;49.068;8.658;2024-01-07T05:31:49;99532.56;;;14.46;45.91
8637;BME280;4356;49.068;8.658;2024-01-07T05:34:14;99525.25;;;14.39;45.95
8637;BME280;4356;49.068;8.658;2024-01-07T05:36:40;99526.09;;;14.40;46.40
8637;BME280;4356;49.068;8.658;2024-01-07T05:39:05;99523.56;;;14.38;45.83
8637;BME280;4356;49.068;8.658;2024-01-07T05:41:32;99536.50;;;14.43;45.76
8637;BME280;4356;49.068;8.658;2024-01-07T05:43:58;99539.41;;;14.41;46.12
8637;BME280;4356;49.068;8.658;2024-01-07T05:46:23;99534.63;;;14.43;46.11
8637;BME280;4356;49.068;8.658;2024-01-07T05:48:49;99548.16;;;14.43;45.77
8637;BME280;4356;49.068;8.658;2024-01-07T05:51:15;99548.97;;;14.44;46.17
8637;BME280;4356;49.068;8.658;2024-01-07T05:53:41;99540.84;;;14.37;45.86
8637;BME280;4356;49.068;8.658;2024-01-07T05:56:07;99549.16;;;14.42;46.12
8637;BME280;4356;49.068;8.658;2024-01-07T05:58:33;99549.16;;;14.42;46.30
8637;BME280;4356;49.068;8.658;2024-01-07T06:00:58;99549.81;;;14.44;46.14
8637;BME280;4356;49.068;8.658;2024-01-07T06:03:25;99554.38;;;14.44;46.12
8637;BME280;4356;49.068;8.658;2024-01-07T06:05:51;99540.22;;;14.35;46.11
8637;BME280;4356;49.068;8.658;2024-01-07T06:08:16;99547.09;;;14.38;46.04
8637;BME280;4356;49.068;8.658;2024-01-07T06:10:41;99543.97;;;14.34;45.91
8637;BME280;4356;49.068;8.658;2024-01-07T06:13:07;99557.69;;;14.39;46.05
8637;BME280;4356;49.068;8.658;2024-01-07T06:15:32;99545.41;;;14.37;45.84
8637;BME280;4356;49.068;8.658;2024-01-07T06:17:57;99559.34;;;14.40;46.13
8637;BME280;4356;49.068;8.658;2024-01-07T06:20:23;99565.59;;;14.41;46.24
8637;BME280;4356;49.068;8.658;2024-01-07T06:22:49;99570.59;;;14.44;46.34
8637;BME280;4356;49.068;8.658;2024-01-07T06:25:15;99570.81;;;14.42;45.80
8637;BME280;4356;49.068;8.658;2024-01-07T06:27:41;99573.72;;;14.41;46.32
8637;BME280;4356;49.068;8.658;2024-01-07T06:30:07;99566.66;;;14.40;46.17
8637;BME280;4356;49.068;8.658;2024-01-07T06:32:32;99572.69;;;14.42;45.89
8637;BME280;4356;49.068;8.658;2024-01-07T06:34:58;99564.13;;;14.32;46.05
8637;BME280;4356;49.068;8.658;2024-01-07T06:37:24;99581.63;;;14.42;46.18
8637;BME280;4356;49.068;8.658;2024-01-07T06:39:49;99564.53;;;14.29;46.23
8637;BME280;4356;49.068;8.658;2024-01-07T06:42:14;99588.06;;;14.41;45.81
8637;BME280;4356;49.068;8.658;2024-01-07T06:44:40;99597.19;;;14.40;46.19
8637;BME280;4356;49.068;8.658;2024-01-07T06:47:06;99575.56;;;14.27;46.12
8637;BME280;4356;49.068;8.658;2024-01-07T06:49:31;99591.78;;;14.40;45.71
8637;BME280;4356;49.068;8.658;2024-01-07T06:51:56;99596.38;;;14.40;45.90
8637;BME280;4356;49.068;8.658;2024-01-07T06:54:22;99598.03;;;14.41;45.82
8637;BME280;4356;49.068;8.658;2024-01-07T06:56:47;99598.47;;;14.38;46.06
8637;BME280;4356;49.068;8.658;2024-01-07T06:59:12;99593.44;;;14.28;46.11
8637;BME280;4356;49.068;8.658;2024-01-07T07:01:38;99590.50;;;14.30;45.69
8637;BME280;4356;49.068;8.658;2024-01-07T07:04:03;99608.84;;;14.41;46.25
8637;BME280;4356;49.068;8.658;2024-01-07T07:06:29;99617.19;;;14.39;46.06
8637;BME280;4356;49.068;8.658;2024-01-07T07:08:54;99606.13;;;14.34;45.88
8637;BME280;4356;49.068;8.658;2024-01-07T07:11:20;99620.72;;;14.40;46.22
8637;BME280;4356;49.068;8.658;2024-01-07T07:13:45;99609.84;;;14.33;45.59
8637;BME280;4356;49.068;8.658;2024-01-07T07:16:11;99601.75;;;14.27;46.35
8637;BME280;4356;49.068;8.658;2024-01-07T07:18:37;99625.06;;;14.41;46.16
8637;BME280;4356;49.068;8.658;2024-01-07T07:21:02;99617.75;;;14.35;45.66
8637;BME280;4356;49.068;8.658;2024-01-07T07:23:28;99633.41;;;14.39;45.77
8637;BME280;4356;49.068;8.658;2024-01-07T07:25:54;99633.81;;;14.36;45.82
8637;BME280;4356;49.068;8.658;2024-01-07T07:28:19;99626.72;;;14.35;45.78
8637;BME280;4356;49.068;8.658;2024-01-07T07:30:44;99639.81;;;14.38;45.97
8637;BME280;4356;49.068;8.658;2024-01-07T07:33:10;99643.78;;;14.36;46.34
8637;BME280;4356;49.068;8.658;2024-01-07T07:35:35;99646.69;;;14.34;45.94
8637;BME280;4356;49.068;8.658;2024-01-07T07:38:00;99658.13;;;14.36;46.62
8637;BME280;4356;49.068;8.658;2024-01-07T07:40:26;99655.44;;;14.36;46.14
8637;BME280;4356;49.068;8.658;2024-01-07T07:42:51;99657.88;;;14.31;46.16
8637;BME280;4356;49.068;8.658;2024-01-07T07:45:16;99667.25;;;14.35;45.66
8637;BME280;4356;49.068;8.658;2024-01-07T07:47:42;99664.56;;;14.35;46.27
8637;BME280;4356;49.068;8.658;2024-01-07T07:50:10;99679.75;;;14.36;46.20
8637;BME280;4356;49.068;8.658;2024-01-07T07:52:36;99673.31;;;14.37;45.79
8637;BME280;4356;49.068;8.658;2024-01-07T07:55:02;99673.72;;;14.34;46.15
8637;BME280;4356;49.068;8.658;2024-01-07T07:57:27;99680.56;;;14.37;46.30
8637;BME280;4356;49.068;8.658;2024-01-07T07:59:54;99679.34;;;14.33;46.22
8637;BME280;4356;49.068;8.658;2024-01-07T08:02:19;99681.19;;;14.32;45.98
8637;BME280;4356;49.068;8.658;2024-01-07T08:04:46;99680.78;;;14.35;46.17
8637;BME280;4356;49.068;8.658;2024-01-07T08:07:12;99676.81;;;14.31;45.87
8637;BME280;4356;49.068;8.658;2024-01-07T08:09:38;99676.41;;;14.34;45.81
8637;BME280;4356;49.068;8.658;2024-01-07T08:12:06;99658.03;;;14.23;45.91
8637;BME280;4356;49.068;8.658;2024-01-07T08:14:32;99685.16;;;14.36;46.50
8637;BME280;4356;49.068;8.658;2024-01-07T08:16:58;99688.88;;;14.35;46.20
8637;BME280;4356;49.068;8.658;2024-01-07T08:19:24;99695.13;;;14.36;45.84
8637;BME280;4356;49.068;8.658;2024-01-07T08:21:49;99695.97;;;14.36;46.03
8637;BME280;4356;49.068;8.658;2024-01-07T08:24:14;99700.75;;;14.34;45.90
8637;BME280;4356;49.068;8.658;2024-01-07T08:26:40;99711.34;;;14.36;45.95
8637;BME280;4356;49.068;8.658;2024-01-07T08:29:06;99696.56;;;14.32;45.99
8637;BME280;4356;49.068;8.658;2024-01-07T08:31:32;99690.66;;;14.22;45.86
8637;BME280;4356;49.068;8.658;2024-01-07T08:33:58;99693.22;;;14.30;45.77
8637;BME280;4356;49.068;8.658;2024-01-07T08:36:23;99713.44;;;14.34;46.18
8637;BME280;4356;49.068;8.658;2024-01-07T08:38:48;99711.56;;;14.34;46.16
8637;BME280;4356;49.068;8.658;2024-01-07T08:41:18;99704.44;;;14.27;46.29
8637;BME280;4356;49.068;8.658;2024-01-07T08:43:43;99708.59;;;14.29;45.71
8637;BME280;4356;49.068;8.658;2024-01-07T08:46:10;99710.72;;;14.34;46.00
8637;BME280;4356;49.068;8.658;2024-01-07T08:48:36;99697.72;;;14.23;45.93
8637;BME280;4356;49.068;8.658;2024-01-07T08:51:01;99722.59;;;14.33;46.08
8637;BME280;4356;49.068;8.658;2024-01-07T08:53:28;99720.47;;;14.35;46.09
8637;BME280;4356;49.068;8.658;2024-01-07T08:55:54;99720.69;;;14.33;46.12
8637;BME280;4356;49.068;8.658;2024-01-07T08:58:19;99732.97;;;14.36;46.24
8637;BME280;4356;49.068;8.658;2024-01-07T09:00:45;99715.25;;;14.27;46.19
8637;BME280;4356;49.068;8.658;2024-01-07T09:03:10;99740.88;;;14.37;45.99
8637;BME280;4356;49.068;8.658;2024-01-07T09:05:36;99737.34;;;14.37;46.37
8637;BME280;4356;49.068;8.658;2024-01-07T09:08:02;99729.00;;;14.32;45.95
8637;BME280;4356;49.068;8.658;2024-01-07T09:10:27;99734.00;;;14.35;46.31
8637;BME280;4356;49.068;8.658;2024-01-07T09:12:53;99738.19;;;14.37;46.06
8637;BME280;4356;49.068;8.658;2024-01-07T09:15:19;99733.97;;;14.28;45.78
8637;BME280;4356;49.068;8.658;2024-01-07T09:17:45;99740.47;;;14.34;46.38
8637;BME280;4356;49.068;8.658;2024-01-07T09:20:12;99745.66;;;14.35;45.96
8637;BME280;4356;49.068;8.658;2024-01-07T09:22:37;99732.47;;;14.26;46.18
8637;BME280;4356;49.068;8.658;2024-01-07T09:25:04;99755.44;;;14.36;46.42
8637;BME280;4356;49.068;8.658;2024-01-07T09:27:30;99755.25;;;14.38;45.85
8637;BME280;4356;49.068;8.658;2024-01-07T09:29:56;99759.19;;;14.35;46.09
8637;BME280;4356;49.068;8.658;2024-01-07T09:32:21;99761.69;;;14.37;46.02
8637;BME280;4356;49.068;8.658;2024-01-07T09:34:47;99760.00;;;14.36;46.25
8637;BME280;4356;49.068;8.658;2024-01-07T09:37:12;99758.34;;;14.35;46.39
8637;BME280;4356;49.068;8.658;2024-01-07T09:39:39;99764.16;;;14.38;45.92
8637;BME280;4356;49.068;8.658;2024-01-07T09:42:09;99771.28;;;14.39;46.01
8637;BME280;4356;49.068;8.658;2024-01-07T09:44:37;99753.94;;;14.27;46.30
8637;BME280;4356;49.068;8.658;2024-01-07T09:47:04;99767.50;;;14.34;46.07
8637;BME280;4356;49.068;8.658;2024-01-07T09:49:31;99756.44;;;14.29;45.88
8637;BME280;4356;49.068;8.658;2024-01-07T09:51:59;99766.00;;;14.31;46.41
8637;BME280;4356;49.068;8.658;2024-01-07T09:54:28;99758.31;;;14.28;46.11
8637;BME280;4356;49.068;8.658;2024-01-07T09:57:02;99767.91;;;14.37;45.97
8637;BME280;4356;49.068;8.658;2024-01-07T09:59:28;99774.38;;;14.36;46.13
8637;BME280;4356;49.068;8.658;2024-01-07T10:01:55;99778.31;;;14.34;45.97
8637;BME280;4356;49.068;8.658;2024-01-07T10:04:21;99785.81;;;14.38;46.19
8637;BME280;4356;49.068;8.658;2024-01-07T10:06:47;99780.59;;;14.37;46.07
8637;BME280;4356;49.068;8.658;2024-01-07T10:09:15;99775.56;;;14.27;46.02
8637;BME280;4356;49.068;8.658;2024-01-07T10:11:40;99794.13;;;14.37;46.31
8637;BME280;4356;49.068;8.658;2024-01-07T10:14:06;99783.91;;;14.32;46.06
8637;BME280;4356;49.068;8.658;2024-01-07T10:16:32;99793.47;;;14.35;46.01
8637;BME280;4356;49.068;8.658;2024-01-07T10:18:58;99799.31;;;14.38;46.04
8637;BME280;4356;49.068;8.658;2024-01-07T10:21:23;99780.13;;;14.27;46.02
8637;BME280;4356;49.068;8.658;2024-01-07T10:23:49;99765.91;;;14.18;45.88
8637;BME280;4356;49.068;8.658;2024-01-07T10:26:15;99789.53;;;14.31;46.10
8637;BME280;4356;49.068;8.658;2024-01-07T10:28:40;99788.03;;;14.28;45.74
8637;BME280;4356;49.068;8.658;2024-01-07T10:31:06;99779.22;;;14.20;46.01
8637;BME280;4356;49.068;8.658;2024-01-07T10:33:31;99800.56;;;14.36;45.85
8637;BME280;4356;49.068;8.658;2024-01-07T10:36:06;99799.09;;;14.33;45.64
8637;BME280;4356;49.068;8.658;2024-01-07T10:38:32;99799.09;;;14.33;45.83
8637;BME280;4356;49.068;8.658;2024-01-07T10:41:01;99808.47;;;14.37;45.53
8637;BME280;4356;49.068;8.658;2024-01-07T10:43:30;99809.31;;;14.38;45.87
8637;BME280;4356;49.068;8.658;2024-01-07T10:46:00;99810.13;;;14.38;45.47
8637;BME280;4356;49.068;8.658;2024-01-07T10:48:30;99808.88;;;14.34;45.68
8637;BME280;4356;49.068;8.658;2024-01-07T10:50:59;99813.25;;;14.35;45.40
8637;BME280;4356;49.068;8.658;2024-01-07T10:53:33;99799.94;;;14.34;45.71
8637;BME280;4356;49.068;8.658;2024-01-07T10:56:03;99796.59;;;14.32;45.36
8637;BME280;4356;49.068;8.658;2024-01-07T10:58:33;99814.94;;;14.36;45.23
8637;BME280;4356;49.068;8.658;2024-01-07T11:01:01;99813.25;;;14.35;45.62
8637;BME280;4356;49.068;8.658;2024-01-07T11:09:56;99818.00;;;14.33;46.17
8637;BME280;4356;49.068;8.658;2024-01-07T11:12:29;99813.00;;;14.30;45.99
8637;BME280;4356;49.068;8.658;2024-01-07T11:14:55;99823.41;;;14.33;45.71
8637;BME280;4356;49.068;8.658;2024-01-07T11:20:04;99821.56;;;14.34;45.64
8637;BME280;4356;49.068;8.658;2024-01-07T11:22:30;99830.50;;;14.34;45.52
8637;BME280;4356;49.068;8.658;2024-01-07T11:25:02;99833.00;;;14.36;46.01
8637;BME280;4356;49.068;8.658;2024-01-07T11:27:34;99824.69;;;14.37;46.25
8637;BME280;4356;49.068;8.658;2024-01-07T11:30:06;99829.25;;;14.37;45.47
8637;BME280;4356;49.068;8.658;2024-01-07T11:32:35;99825.09;;;14.34;45.36
8637;BME280;4356;49.068;8.658;2024-01-07T11:35:01;99832.16;;;14.35;45.67
8637;BME280;4356;49.068;8.658;2024-01-07T11:37:27;99838.22;;;14.37;45.65
8637;BME280;4356;49.068;8.658;2024-01-07T11:40:04;99818.41;;;14.30;45.17
8637;BME280;4356;49.068;8.658;2024-01-07T11:42:29;99829.25;;;14.37;45.94
8637;BME280;4356;49.068;8.658;2024-01-07T11:44:55;99837.00;;;14.40;45.41
8637;BME280;4356;49.068;8.658;2024-01-07T11:47:24;99835.31;;;14.39;45.61
8637;BME280;4356;49.068;8.658;2024-01-07T11:49:53;99830.09;;;14.37;45.66
8637;BME280;4356;49.068;8.658;2024-01-07T11:52:21;99833.44;;;14.39;45.23
8637;BME280;4356;49.068;8.658;2024-01-07T11:54:47;99838.84;;;14.39;45.79
8637;BME280;4356;49.068;8.658;2024-01-07T11:57:13;99837.16;;;14.38;45.75
8637;BME280;4356;49.068;8.658;2024-01-07T11:59:39;99839.88;;;14.38;45.37
8637;BME280;4356;49.068;8.658;2024-01-07T12:02:05;99826.53;;;14.30;45.24
8637;BME280;4356;49.068;8.658;2024-01-07T12:04:31;99824.84;;;14.29;45.18
8637;BME280;4356;49.068;8.658;2024-01-07T12:06:57;99843.63;;;14.37;45.35
8637;BME280;4356;49.068;8.658;2024-01-07T12:09:22;99834.63;;;14.30;45.45
8637;BME280;4356;49.068;8.658;2024-01-07T12:11:48;99841.97;;;14.36;45.30
8637;BME280;4356;49.068;8.658;2024-01-07T12:14:14;99843.41;;;14.39;45.19
8637;BME280;4356;49.068;8.658;2024-01-07T12:16:39;99838.63;;;14.34;45.05
8637;BME280;4356;49.068;8.658;2024-01-07T12:19:05;99832.56;;;14.32;45.49
8637;BME280;4356;49.068;8.658;2024-01-07T12:21:30;99843.81;;;14.36;45.09
8637;BME280;4356;49.068;8.658;2024-01-07T12:23:56;99847.16;;;14.38;45.28
8637;BME280;4356;49.068;8.658;2024-01-07T12:26:27;99856.94;;;14.39;45.27
8637;BME280;4356;49.068;8.658;2024-01-07T12:28:53;99842.78;;;14.37;44.89
8637;BME280;4356;49.068;8.658;2024-01-07T12:31:19;99831.72;;;14.32;45.35
8637;BME280;4356;49.068;8.658;2024-01-07T12:33:46;99837.78;;;14.34;45.28
8637;BME280;4356;49.068;8.658;2024-01-07T12:36:12;99844.25;;;14.39;45.33
8637;BME280;4356;49.068;8.658;2024-01-07T12:38:37;99843.63;;;14.37;44.59
8637;BME280;4356;49.068;8.658;2024-01-07T12:41:03;99846.13;;;14.39;44.96
8637;BME280;4356;49.068;8.658;2024-01-07T12:43:29;99841.13;;;14.36;45.39
8637;BME280;4356;49.068;8.658;2024-01-07T12:45:55;99842.97;;;14.35;45.00
8637;BME280;4356;49.068;8.658;2024-01-07T12:48:22;99852.78;;;14.36;44.88
8637;BME280;4356;49.068;8.658;2024-01-07T12:50:47;99850.06;;;14.36;45.05
8637;BME280;4356;49.068;8.658;2024-01-07T12:53:13;99838.75;;;14.26;45.03
8637;BME280;4356;49.068;8.658;2024-01-07T12:55:38;99843.13;;;14.27;44.84
8637;BME280;4356;49.068;8.658;2024-01-07T12:58:03;99859.41;;;14.34;44.66
8637;BME280;4356;49.068;8.658;2024-01-07T13:00:29;99854.75;;;14.28;44.94
8637;BME280;4356;49.068;8.658;2024-01-07T13:02:55;99870.84;;;14.36;45.17
8637;BME280;4356;49.068;8.658;2024-01-07T13:05:20;99874.41;;;14.36;44.81
8637;BME280;4356;49.068;8.658;2024-01-07T13:07:46;99873.34;;;14.37;44.86
8637;BME280;4356;49.068;8.658;2024-01-07T13:10:12;99873.56;;;14.36;44.91
8637;BME280;4356;49.068;8.658;2024-01-07T13:12:41;99861.22;;;14.27;44.44
8637;BME280;4356;49.068;8.658;2024-01-07T13:15:06;99877.09;;;14.36;45.13
8637;BME280;4356;49.068;8.658;2024-01-07T13:17:32;99882.69;;;14.35;44.44
8637;BME280;4356;49.068;8.658;2024-01-07T13:19:59;99884.38;;;14.36;44.07
8637;BME280;4356;49.068;8.658;2024-01-07T13:22:25;99893.31;;;14.36;44.81
8637;BME280;4356;49.068;8.658;2024-01-07T13:24:50;99886.44;;;14.34;44.47